Current Weather

City

City, United Kingdom (EGLC)

Report from: Tuesday, July 16, 2024 9:20 AM BST
Current time: Tuesday, July 16, 2024 9:39 AM BST

Nearby weather – Weather history – Daily summaries
Weather forecast

Temperature18.0°C (64.4°F)
Dew point13.0°C (55.4°F)
Winds 10 kts (5.1 m/s, 11.5 mph) Vrb
Winds variableWinds variable from South (190°) to West (270°)
Visibility6.2 mi. (10 km)
Clouds Few clouds 2,000 ft. (610 m)
Scattered clouds 2,500 ft. (762 m)
Altimeter29.74 in.Hg (1007 mB)
Relative humidity73 %
Density altitude773 ft. (236 m)
Remarks Fully automated report
Flight conditions Visual Meteorological Conditions
Raw dataEGLC 160820Z AUTO 24010KT 190V270 9999 FEW020 SCT025 18/13 Q1007
An error has occurred. This application may no longer respond until reloaded. Reload 🗙